createdAt,value
2018-07-05T00:01:01.090Z,32.7
2018-07-05T00:02:03.279Z,32.8
2018-07-05T00:03:05.460Z,32.7
2018-07-05T00:04:07.647Z,32.9
2018-07-05T00:05:09.520Z,32.7
2018-07-05T00:06:11.970Z,32.8
2018-07-05T00:07:14.123Z,32.8
2018-07-05T00:08:16.583Z,32.8
2018-07-05T00:09:19.028Z,32.7
2018-07-05T00:10:20.903Z,32.7
2018-07-05T00:11:23.089Z,32.8
2018-07-05T00:12:25.548Z,32.8
2018-07-05T00:13:28.006Z,32.9
2018-07-05T00:14:30.449Z,32.7
2018-07-05T00:15:32.349Z,32.7
2018-07-05T00:16:34.802Z,32.7
2018-07-05T00:17:36.981Z,32.7
2018-07-05T00:18:39.428Z,32.8
2018-07-05T00:19:41.589Z,32.8
2018-07-05T00:20:43.780Z,32.8
2018-07-05T00:21:46.228Z,32.8
2018-07-05T00:22:48.105Z,32.9
2018-07-05T00:23:50.282Z,32.7
2018-07-05T00:24:52.458Z,32.8
2018-07-05T00:25:54.354Z,32.7
2018-07-05T00:26:56.519Z,32.7
2018-07-05T00:27:58.698Z,32.8
2018-07-05T00:29:01.150Z,33
2018-07-05T00:30:03.606Z,33
2018-07-05T00:31:06.083Z,32.7
2018-07-05T00:32:08.525Z,32.9
2018-07-05T00:33:10.723Z,32.9
2018-07-05T00:34:13.169Z,32.8
2018-07-05T00:35:15.616Z,32.9
2018-07-05T00:36:17.557Z,32.9
2018-07-05T00:37:20.002Z,32.9
2018-07-05T00:38:22.168Z,32.9
2018-07-05T00:39:24.338Z,32.9
2018-07-05T00:40:26.526Z,32.9
2018-07-05T00:41:28.967Z,32.8
2018-07-05T00:42:31.137Z,32.9
2018-07-05T00:43:33.280Z,32.8
2018-07-05T00:44:35.728Z,32.9
2018-07-05T00:45:37.899Z,32.9
2018-07-05T00:46:40.061Z,32.8
2018-07-05T00:47:42.248Z,33
2018-07-05T00:48:44.443Z,32.8
2018-07-05T00:49:46.880Z,32.9
2018-07-05T00:50:48.800Z,32.9
2018-07-05T00:51:50.709Z,32.8
2018-07-05T00:52:52.886Z,32.8
2018-07-05T00:53:55.058Z,32.8
2018-07-05T00:54:56.941Z,32.9
2018-07-05T00:55:59.111Z,32.8
2018-07-05T00:57:01.279Z,32.9
2018-07-05T00:58:03.476Z,32.8
2018-07-05T00:59:05.620Z,32.9
2018-07-05T01:00:07.281Z,32.9
2018-07-05T01:01:09.432Z,33
2018-07-05T01:02:11.619Z,33
2018-07-05T01:03:13.795Z,32.8
2018-07-05T01:04:15.676Z,33
2018-07-05T01:05:18.118Z,32.9
2018-07-05T01:06:20.563Z,32.8
2018-07-05T01:07:22.495Z,32.9
2018-07-05T01:08:24.941Z,32.9
2018-07-05T01:09:27.405Z,33
2018-07-05T01:10:29.301Z,32.9
2018-07-05T01:11:31.217Z,32.9
2018-07-05T01:12:33.423Z,32.8
2018-07-05T01:13:35.991Z,32.9
2018-07-05T01:14:38.161Z,32.8
2018-07-05T01:15:40.053Z,32.9
2018-07-05T01:16:41.412Z,32.9
2018-07-05T01:17:43.593Z,32.9
2018-07-05T01:18:46.036Z,33
2018-07-05T01:19:47.642Z,33
2018-07-05T01:20:49.550Z,32.9
2018-07-05T01:21:51.998Z,32.9
2018-07-05T01:22:54.171Z,32.9
2018-07-05T01:23:56.317Z,32.9
2018-07-05T01:24:58.498Z,32.9
2018-07-05T01:26:00.946Z,33
2018-07-05T01:27:03.124Z,32.9
2018-07-05T01:28:05.290Z,33
2018-07-05T01:29:07.469Z,32.9
2018-07-05T01:30:09.643Z,33
2018-07-05T01:31:11.833Z,32.9
2018-07-05T01:32:13.997Z,33
2018-07-05T01:33:16.204Z,32.9
2018-07-05T01:34:18.657Z,32.9
2018-07-05T01:35:21.098Z,33
2018-07-05T01:36:23.547Z,33
2018-07-05T01:37:25.728Z,32.9
2018-07-05T01:38:27.893Z,32.8
2018-07-05T01:39:30.337Z,32.9
2018-07-05T01:40:32.784Z,33
2018-07-05T01:41:34.960Z,32.9
2018-07-05T01:42:37.423Z,33
2018-07-05T01:43:39.603Z,32.9
2018-07-05T01:44:42.041Z,32.9
2018-07-05T01:45:44.230Z,32.9
2018-07-05T01:46:46.405Z,32.9
2018-07-05T01:47:48.835Z,33
2018-07-05T01:48:51.282Z,32.8
2018-07-05T01:49:53.724Z,32.9
2018-07-05T01:50:55.899Z,33
2018-07-05T01:51:58.337Z,33
2018-07-05T01:52:59.960Z,33
2018-07-05T01:54:02.138Z,32.9
2018-07-05T01:55:04.310Z,32.9
2018-07-05T01:56:06.747Z,33.1
2018-07-05T01:57:08.661Z,33
2018-07-05T01:58:11.126Z,32.9
2018-07-05T01:59:13.286Z,32.9
2018-07-05T02:00:15.728Z,32.9
2018-07-05T02:01:17.899Z,33
2018-07-05T02:02:20.346Z,33
2018-07-05T02:03:22.263Z,32.9
2018-07-05T02:04:24.438Z,32.9
2018-07-05T02:05:26.887Z,33
2018-07-05T02:06:29.065Z,33
2018-07-05T02:07:31.258Z,33.1
2018-07-05T02:08:33.702Z,32.9
2018-07-05T02:09:35.861Z,33.1
2018-07-05T02:10:38.312Z,33
2018-07-05T02:11:40.470Z,32.9
2018-07-05T02:12:42.919Z,33
2018-07-05T02:13:44.783Z,33
2018-07-05T02:14:46.419Z,33
2018-07-05T02:15:48.598Z,33
2018-07-05T02:16:50.742Z,33
2018-07-05T02:17:52.924Z,33
2018-07-05T02:18:55.352Z,32.9
2018-07-05T02:19:57.798Z,32.9
2018-07-05T02:21:00.261Z,33
2018-07-05T02:22:02.742Z,33
2018-07-05T02:23:04.909Z,33
2018-07-05T02:24:07.091Z,33
2018-07-05T02:25:08.702Z,32.9
2018-07-05T02:26:10.885Z,33.1
2018-07-05T02:27:12.522Z,33
2018-07-05T02:28:14.695Z,33
2018-07-05T02:29:16.877Z,33
2018-07-05T02:30:19.053Z,33
2018-07-05T02:31:21.217Z,33
2018-07-05T02:32:23.385Z,33
2018-07-05T02:33:25.557Z,32.9
2018-07-05T02:34:27.713Z,33
2018-07-05T02:35:29.890Z,33
2018-07-05T02:36:32.348Z,33.1
2018-07-05T02:37:34.799Z,33
2018-07-05T02:38:36.411Z,33
2018-07-05T02:39:38.579Z,33
2018-07-05T02:40:40.782Z,33
2018-07-05T02:41:43.221Z,33
2018-07-05T02:42:45.665Z,33.1
2018-07-05T02:43:47.850Z,33
2018-07-05T02:44:50.018Z,32.9
2018-07-05T02:45:52.188Z,32.9
2018-07-05T02:46:54.627Z,32.9
2018-07-05T02:47:56.806Z,32.9
2018-07-05T02:48:58.965Z,32.9
2018-07-05T02:50:01.151Z,32.9
2018-07-05T02:51:03.333Z,32.9
2018-07-05T02:52:05.796Z,33.1
2018-07-05T02:53:08.240Z,33
2018-07-05T02:54:10.163Z,32.9
2018-07-05T02:55:12.305Z,33
2018-07-05T02:56:14.760Z,32.9
2018-07-05T02:57:16.926Z,33
2018-07-05T02:58:19.367Z,33
2018-07-05T02:59:21.809Z,32.9
2018-07-05T03:00:24.253Z,33
2018-07-05T03:01:26.439Z,33
2018-07-05T03:02:28.615Z,33
2018-07-05T03:03:30.787Z,33
2018-07-05T03:04:33.228Z,33
2018-07-05T03:05:35.674Z,32.9
2018-07-05T03:06:38.120Z,32.9
2018-07-05T03:07:40.571Z,32.9
2018-07-05T03:08:42.762Z,32.9
2018-07-05T03:09:44.387Z,32.9
2018-07-05T03:10:46.269Z,32.9
2018-07-05T03:11:48.173Z,33
2018-07-05T03:12:50.629Z,32.9
2018-07-05T03:13:52.020Z,32.9
2018-07-05T03:14:53.907Z,32.9
2018-07-05T03:15:56.056Z,32.7
2018-07-05T03:16:58.241Z,32.8
2018-07-05T03:18:00.699Z,33
2018-07-05T03:19:03.158Z,32.9
2018-07-05T03:20:05.332Z,32.8
2018-07-05T03:21:07.769Z,32.9
2018-07-05T03:22:09.674Z,32.7
2018-07-05T03:23:12.113Z,32.8
2018-07-05T03:24:14.561Z,32.9
2018-07-05T03:25:16.729Z,32.9
2018-07-05T03:26:18.917Z,32.8
2018-07-05T03:27:21.092Z,32.9
2018-07-05T03:28:23.539Z,32.7
2018-07-05T03:29:25.446Z,32.8
2018-07-05T03:30:28.077Z,32.8
2018-07-05T03:31:30.532Z,32.8
2018-07-05T03:32:33.036Z,32.9
2018-07-05T03:33:35.209Z,32.7
2018-07-05T03:34:37.378Z,32.9
2018-07-05T03:35:39.571Z,32.8
2018-07-05T03:36:41.469Z,32.7
2018-07-05T03:37:43.615Z,32.7
2018-07-05T03:38:45.799Z,32.8
2018-07-05T03:39:47.721Z,32.8
2018-07-05T03:40:49.885Z,32.7
2018-07-05T03:41:52.070Z,32.8
2018-07-05T03:42:53.937Z,32.9
2018-07-05T03:43:56.138Z,32.7
2018-07-05T03:44:58.601Z,32.8
2018-07-05T03:46:00.796Z,32.7
2018-07-05T03:47:02.689Z,32.9
2018-07-05T03:48:05.138Z,32.7
2018-07-05T03:49:07.586Z,32.7
2018-07-05T03:50:10.030Z,32.7
2018-07-05T03:51:12.479Z,32.9
2018-07-05T03:52:14.924Z,32.8
2018-07-05T03:53:17.369Z,32.8
2018-07-05T03:54:19.543Z,32.8
2018-07-05T03:55:21.696Z,32.8
2018-07-05T03:56:24.151Z,32.8
2018-07-05T03:57:26.332Z,32.7
2018-07-05T03:58:28.514Z,32.8
2018-07-05T03:59:30.682Z,32.7
2018-07-05T04:00:33.117Z,32.9
2018-07-05T04:01:35.559Z,32.7
2018-07-05T04:02:38.047Z,32.7
2018-07-05T04:03:40.434Z,32.8
2018-07-05T04:04:42.583Z,32.8
2018-07-05T04:05:44.760Z,32.7
2018-07-05T04:06:46.937Z,32.8
2018-07-05T04:07:49.117Z,32.6
2018-07-05T04:08:51.558Z,32.6
2018-07-05T04:09:53.999Z,32.7
2018-07-05T04:10:56.197Z,32.8
2018-07-05T04:11:58.362Z,32.8
2018-07-05T04:13:00.537Z,32.7
2018-07-05T04:14:02.452Z,32.8
2018-07-05T04:15:04.614Z,32.6
2018-07-05T04:16:06.753Z,32.8
2018-07-05T04:17:08.355Z,32.6
2018-07-05T04:18:10.259Z,32.6
2018-07-05T04:19:12.701Z,32.7
2018-07-05T04:20:14.878Z,32.6
2018-07-05T04:21:17.049Z,32.6
2018-07-05T04:22:18.662Z,32.6
2018-07-05T04:23:21.114Z,32.6
2018-07-05T04:24:22.755Z,32.6
2018-07-05T04:25:25.238Z,32.7
2018-07-05T04:26:27.689Z,32.7
2018-07-05T04:27:29.848Z,32.6
2018-07-05T04:28:32.011Z,32.8
2018-07-05T04:29:34.204Z,32.5
2018-07-05T04:30:35.847Z,32.7
2018-07-05T04:31:37.189Z,32.5
2018-07-05T04:32:39.644Z,32.7
2018-07-05T04:33:41.543Z,32.6
2018-07-05T04:34:42.889Z,32.6
2018-07-05T04:35:45.134Z,32.6
2018-07-05T04:36:47.309Z,32.6
2018-07-05T04:37:49.762Z,32.6
2018-07-05T04:38:51.937Z,32.6
2018-07-05T04:39:54.133Z,32.5
2018-07-05T04:40:56.047Z,32.6
2018-07-05T04:41:57.960Z,32.6
2018-07-05T04:43:00.151Z,32.6
2018-07-05T04:44:02.599Z,32.6
2018-07-05T04:45:04.784Z,32.6
2018-07-05T04:46:06.962Z,32.6
2018-07-05T04:47:09.140Z,32.6
2018-07-05T04:48:11.023Z,32.6
2018-07-05T04:49:12.659Z,32.7
2018-07-05T04:50:14.539Z,32.6
2018-07-05T04:51:16.455Z,32.6
2018-07-05T04:52:18.612Z,32.6
2018-07-05T04:53:20.223Z,32.6
2018-07-05T04:54:22.410Z,32.6
2018-07-05T04:55:24.336Z,32.5
2018-07-05T04:56:26.309Z,32.5
2018-07-05T04:57:28.495Z,32.6
2018-07-05T04:58:30.688Z,32.6
2018-07-05T04:59:33.158Z,32.6
2018-07-05T05:00:35.166Z,32.7
2018-07-05T05:01:37.424Z,32.6
2018-07-05T05:02:39.692Z,32.7
2018-07-05T05:03:41.608Z,32.6
2018-07-05T05:04:43.859Z,32.6
2018-07-05T05:05:46.326Z,32.7
2018-07-05T05:06:48.507Z,32.6
2018-07-05T05:07:50.947Z,32.6
2018-07-05T05:08:53.097Z,32.6
2018-07-05T05:09:55.009Z,32.6
2018-07-05T05:10:57.461Z,32.6
2018-07-05T05:11:59.622Z,32.5
2018-07-05T05:13:02.060Z,32.7
2018-07-05T05:14:04.040Z,32.6
2018-07-05T05:15:06.283Z,32.6
2018-07-05T05:16:08.521Z,32.6
2018-07-05T05:17:11.063Z,32.5
2018-07-05T05:18:13.359Z,32.5
2018-07-05T05:19:15.819Z,32.5
2018-07-05T05:20:17.709Z,32.6
2018-07-05T05:21:19.879Z,32.6
2018-07-05T05:22:22.048Z,32.7
2018-07-05T05:23:24.496Z,32.5
2018-07-05T05:24:26.943Z,32.5
2018-07-05T05:25:29.398Z,32.4
2018-07-05T05:26:31.570Z,32.6
2018-07-05T05:27:34.020Z,32.5
2018-07-05T05:28:36.473Z,32.6
2018-07-05T05:29:38.918Z,32.6
2018-07-05T05:30:41.365Z,32.4
2018-07-05T05:31:43.818Z,32.6
2018-07-05T05:32:45.731Z,32.6
2018-07-05T05:33:47.900Z,32.6
2018-07-05T05:34:50.100Z,32.6
2018-07-05T05:35:52.298Z,32.5
2018-07-05T05:36:54.758Z,32.6
2018-07-05T05:37:57.040Z,32.5
2018-07-05T05:38:59.412Z,32.6
2018-07-05T05:40:01.710Z,32.5
2018-07-05T05:41:04.185Z,32.6
2018-07-05T05:42:06.373Z,32.6
2018-07-05T05:43:08.813Z,32.5
2018-07-05T05:44:11.054Z,32.4
2018-07-05T05:45:13.228Z,32.5
2018-07-05T05:46:15.809Z,32.5
2018-07-05T05:47:17.990Z,32.5
2018-07-05T05:48:20.149Z,32.5
2018-07-05T05:49:22.601Z,32.5
2018-07-05T05:50:25.043Z,32.5
2018-07-05T05:51:27.495Z,32.4
2018-07-05T05:52:29.977Z,32.5
2018-07-05T05:53:32.431Z,32.5
2018-07-05T05:54:34.608Z,32.6
2018-07-05T05:55:37.151Z,32.5
2018-07-05T05:56:39.563Z,32.5
2018-07-05T05:57:42.015Z,32.6
2018-07-05T05:58:44.449Z,32.5
2018-07-05T05:59:46.899Z,32.5
2018-07-05T06:00:49.363Z,32.5
2018-07-05T06:01:51.024Z,32.5
2018-07-05T06:02:53.244Z,32.5
2018-07-05T06:03:55.121Z,32.5
2018-07-05T06:04:57.595Z,32.5
2018-07-05T06:05:59.470Z,32.4
2018-07-05T06:07:01.413Z,32.5
2018-07-05T06:08:03.399Z,32.6
2018-07-05T06:09:05.643Z,32.4
2018-07-05T06:10:07.838Z,32.6
2018-07-05T06:11:10.023Z,32.5
2018-07-05T06:12:12.464Z,32.5
2018-07-05T06:13:14.622Z,32.5
2018-07-05T06:14:16.809Z,32.5
2018-07-05T06:15:19.284Z,32.5
2018-07-05T06:16:21.277Z,32.5
2018-07-05T06:17:23.200Z,32.5
2018-07-05T06:18:25.095Z,32.4
2018-07-05T06:19:27.290Z,32.4
2018-07-05T06:20:29.762Z,32.5
2018-07-05T06:21:31.944Z,32.5
2018-07-05T06:22:34.119Z,32.5
2018-07-05T06:23:36.586Z,32.4
2018-07-05T06:24:38.197Z,32.5
2018-07-05T06:25:40.551Z,32.6
2018-07-05T06:26:43.275Z,32.5
2018-07-05T06:27:45.724Z,32.4
2018-07-05T06:28:48.181Z,32.5
2018-07-05T06:29:50.373Z,32.4
2018-07-05T06:30:52.898Z,32.4
2018-07-05T06:31:55.376Z,32.4
2018-07-05T06:32:57.830Z,32.4
2018-07-05T06:34:00.036Z,32.4
2018-07-05T06:35:02.525Z,32.5
2018-07-05T06:36:05.014Z,32.4
2018-07-05T06:37:07.289Z,32.5
2018-07-05T06:38:09.246Z,32.4
2018-07-05T06:39:11.409Z,32.5
2018-07-05T06:40:13.880Z,32.5
2018-07-05T06:41:16.328Z,32.4
2018-07-05T06:42:18.786Z,32.4
2018-07-05T06:43:20.946Z,32.4
2018-07-05T06:44:23.140Z,32.5
2018-07-05T06:45:25.592Z,32.4
2018-07-05T06:46:27.306Z,32.5
2018-07-05T06:47:29.236Z,32.5
2018-07-05T06:48:31.883Z,32.5
2018-07-05T06:49:34.059Z,32.5
2018-07-05T06:50:36.240Z,32.4
2018-07-05T06:51:38.397Z,32.4
2018-07-05T06:52:40.616Z,32.4
2018-07-05T06:53:42.789Z,32.4
2018-07-05T06:54:45.329Z,32.4
2018-07-05T06:55:47.237Z,32.3
2018-07-05T06:56:49.152Z,32.4
2018-07-05T06:57:51.603Z,32.5
2018-07-05T06:58:54.059Z,32.4
2018-07-05T06:59:56.576Z,32.5
2018-07-05T07:00:58.530Z,32.4
2018-07-05T07:02:01.051Z,32.4
2018-07-05T07:03:03.528Z,32.5
2018-07-05T07:04:05.871Z,32.5
2018-07-05T07:05:07.769Z,32.5
2018-07-05T07:06:10.209Z,32.5
2018-07-05T07:07:12.782Z,32.5
2018-07-05T07:08:15.216Z,32.5
2018-07-05T07:09:17.119Z,32.5
2018-07-05T07:10:19.558Z,32.6
2018-07-05T07:11:21.730Z,32.5
2018-07-05T07:12:24.183Z,32.5
2018-07-05T07:13:26.655Z,32.5
2018-07-05T07:14:28.538Z,32.5
2018-07-05T07:15:30.997Z,32.4
2018-07-05T07:16:32.627Z,32.5
2018-07-05T07:17:34.533Z,32.5
2018-07-05T07:18:36.979Z,32.5
2018-07-05T07:19:38.876Z,32.5
2018-07-05T07:20:41.059Z,32.5
2018-07-05T07:21:43.561Z,32.5
2018-07-05T07:22:46.108Z,32.4
2018-07-05T07:23:48.574Z,32.4
2018-07-05T07:24:50.473Z,32.6
2018-07-05T07:25:52.674Z,32.5
2018-07-05T07:26:55.120Z,32.5
2018-07-05T07:27:57.039Z,32.5
2018-07-05T07:28:59.516Z,32.4
2018-07-05T07:30:01.759Z,32.5
2018-07-05T07:31:03.665Z,32.5
2018-07-05T07:32:05.827Z,32.4
2018-07-05T07:33:08.332Z,32.4
2018-07-05T07:34:10.605Z,32.5
2018-07-05T07:35:12.776Z,32.4
2018-07-05T07:36:14.719Z,32.4
2018-07-05T07:37:17.193Z,32.4
2018-07-05T07:38:19.369Z,32.5
2018-07-05T07:39:21.827Z,32.3
2018-07-05T07:40:24.281Z,32.4
2018-07-05T07:41:26.739Z,32.4
2018-07-05T07:42:29.205Z,32.5
2018-07-05T07:43:31.380Z,32.4
2018-07-05T07:44:33.830Z,32.4
2018-07-05T07:45:36.180Z,32.5
2018-07-05T07:46:38.840Z,32.5
2018-07-05T07:47:41.294Z,32.4
2018-07-05T07:48:43.481Z,32.4
2018-07-05T07:49:45.681Z,32.5
2018-07-05T07:50:47.861Z,32.5
2018-07-05T07:51:50.309Z,32.5
2018-07-05T07:52:51.968Z,32.5
2018-07-05T07:53:54.426Z,32.6
2018-07-05T07:54:56.596Z,32.5
2018-07-05T07:55:58.771Z,32.4
2018-07-05T07:57:00.681Z,32.5
2018-07-05T07:58:02.843Z,32.5
2018-07-05T07:59:04.777Z,32.5
2018-07-05T08:00:07.219Z,32.6
2018-07-05T08:01:09.402Z,32.3
2018-07-05T08:02:11.582Z,32.5
2018-07-05T08:03:14.038Z,32.5
2018-07-05T08:04:15.950Z,32.5
2018-07-05T08:05:18.139Z,32.5
2018-07-05T08:06:20.604Z,32.5
2018-07-05T08:07:22.814Z,32.5
2018-07-05T08:08:25.248Z,32.6
2018-07-05T08:09:26.875Z,32.6
2018-07-05T08:10:29.091Z,32.6
2018-07-05T08:11:31.261Z,32.6
2018-07-05T08:12:33.368Z,32.5
2018-07-05T08:13:35.271Z,32.4
2018-07-05T08:14:37.717Z,32.5
2018-07-05T08:15:39.887Z,32.5
2018-07-05T08:16:41.809Z,32.5
2018-07-05T08:17:43.997Z,32.5
2018-07-05T08:18:46.192Z,32.6
2018-07-05T08:19:48.422Z,32.6
2018-07-05T08:20:50.599Z,32.6
2018-07-05T08:21:52.792Z,32.5
2018-07-05T08:22:54.966Z,32.5
2018-07-05T08:23:57.147Z,32.6
2018-07-05T08:24:59.318Z,32.6
2018-07-05T08:26:01.519Z,32.5
2018-07-05T08:27:03.668Z,32.6
2018-07-05T08:28:05.599Z,32.5
2018-07-05T08:29:08.050Z,32.5
2018-07-05T08:30:10.228Z,32.5
2018-07-05T08:31:12.685Z,32.4
2018-07-05T08:32:15.229Z,32.5
2018-07-05T08:33:17.136Z,32.5
2018-07-05T08:34:19.333Z,32.5
2018-07-05T08:35:21.497Z,32.6
2018-07-05T08:36:23.404Z,32.5
2018-07-05T08:37:25.599Z,32.5
2018-07-05T08:38:27.783Z,32.6
2018-07-05T08:39:30.233Z,32.6
2018-07-05T08:40:32.695Z,32.7
2018-07-05T08:41:34.601Z,32.5
2018-07-05T08:42:37.048Z,32.6
2018-07-05T08:43:39.208Z,32.7
2018-07-05T08:44:41.440Z,32.6
2018-07-05T08:45:44.027Z,32.6
2018-07-05T08:46:46.228Z,32.6
2018-07-05T08:47:48.677Z,32.6
2018-07-05T08:48:50.590Z,32.7
2018-07-05T08:49:52.756Z,32.6
2018-07-05T08:50:54.939Z,32.5
2018-07-05T08:51:57.395Z,32.6
2018-07-05T08:52:59.864Z,32.6
2018-07-05T08:54:02.338Z,32.5
2018-07-05T08:55:04.799Z,32.6
2018-07-05T08:56:07.249Z,32.5
2018-07-05T08:57:09.700Z,32.7
2018-07-05T08:58:12.237Z,32.6
2018-07-05T08:59:14.747Z,32.6
2018-07-05T09:00:17.200Z,32.5
2018-07-05T09:01:19.098Z,32.6
2018-07-05T09:02:21.546Z,32.6
2018-07-05T09:03:23.725Z,32.6
2018-07-05T09:04:25.906Z,32.7
2018-07-05T09:05:28.049Z,32.7
2018-07-05T09:06:29.709Z,32.7
2018-07-05T09:07:31.640Z,32.6
2018-07-05T09:08:34.088Z,32.6
2018-07-05T09:09:35.704Z,32.6
2018-07-05T09:10:38.175Z,32.6
2018-07-05T09:11:40.360Z,32.6
2018-07-05T09:12:42.794Z,32.6
2018-07-05T09:13:44.713Z,32.8
2018-07-05T09:14:46.876Z,32.6
2018-07-05T09:15:49.339Z,32.7
2018-07-05T09:16:51.810Z,32.7
2018-07-05T09:17:55.144Z,32.7
2018-07-05T09:18:58.891Z,32.6
2018-07-05T09:20:01.346Z,32.6
2018-07-05T09:21:03.799Z,32.7
2018-07-05T09:22:06.248Z,32.6
2018-07-05T09:23:08.635Z,32.8
2018-07-05T09:24:11.431Z,32.7
2018-07-05T09:25:13.333Z,32.6
2018-07-05T09:26:15.513Z,32.6
2018-07-05T09:27:17.958Z,32.7
2018-07-05T09:28:20.409Z,32.8
2018-07-05T09:29:22.313Z,32.8
2018-07-05T09:30:24.758Z,32.8
2018-07-05T09:31:26.949Z,32.6
2018-07-05T09:32:29.570Z,32.6
2018-07-05T09:33:31.478Z,32.7
2018-07-05T09:34:33.661Z,32.7
2018-07-05T09:35:36.112Z,32.7
2018-07-05T09:36:38.043Z,32.9
2018-07-05T09:37:40.399Z,32.7
2018-07-05T09:38:43.020Z,32.9
2018-07-05T09:39:45.218Z,32.8
2018-07-05T09:40:47.399Z,32.7
2018-07-05T09:41:49.581Z,32.8
2018-07-05T09:42:51.773Z,33
2018-07-05T09:43:54.233Z,32.8
2018-07-05T09:44:56.398Z,32.8
2018-07-05T09:45:58.308Z,32.8
2018-07-05T09:47:00.938Z,32.8
2018-07-05T09:48:03.497Z,32.8
2018-07-05T09:49:05.660Z,32.9
2018-07-05T09:50:08.116Z,32.7
2018-07-05T09:51:10.297Z,32.7
2018-07-05T09:52:12.760Z,32.7
2018-07-05T09:53:14.959Z,32.7
2018-07-05T09:54:17.108Z,32.6
2018-07-05T09:55:19.319Z,32.8
2018-07-05T09:56:21.771Z,33
2018-07-05T09:57:23.374Z,32.9
2018-07-05T09:58:25.559Z,32.8
2018-07-05T09:59:27.734Z,32.7
2018-07-05T10:00:29.883Z,32.7
2018-07-05T10:01:32.070Z,32.9
2018-07-05T10:02:33.959Z,32.7
2018-07-05T10:03:36.551Z,32.8
2018-07-05T10:04:39.471Z,32.8
2018-07-05T10:05:41.907Z,32.9
2018-07-05T10:06:43.812Z,32.9
2018-07-05T10:07:46.276Z,32.8
2018-07-05T10:08:48.446Z,32.8
2018-07-05T10:09:50.644Z,32.9
2018-07-05T10:10:53.121Z,32.8
2018-07-05T10:11:55.303Z,32.8
2018-07-05T10:12:57.531Z,32.9
2018-07-05T10:14:00.144Z,32.8
2018-07-05T10:15:02.599Z,32.8
2018-07-05T10:16:04.485Z,32.8
2018-07-05T10:17:06.939Z,32.8
2018-07-05T10:18:09.101Z,32.9
2018-07-05T10:19:10.738Z,32.9
2018-07-05T10:20:12.642Z,32.8
2018-07-05T10:21:14.252Z,32.8
2018-07-05T10:22:16.454Z,32.9
2018-07-05T10:23:18.888Z,32.9
2018-07-05T10:24:21.338Z,32.8
2018-07-05T10:25:23.763Z,32.9
2018-07-05T10:26:26.204Z,32.9
2018-07-05T10:27:28.657Z,32.9
2018-07-05T10:28:31.123Z,32.8
2018-07-05T10:29:33.586Z,32.9
2018-07-05T10:30:35.761Z,32.9
2018-07-05T10:31:37.936Z,32.9
2018-07-05T10:32:40.377Z,32.9
2018-07-05T10:33:42.563Z,32.9
2018-07-05T10:34:44.742Z,32.9
2018-07-05T10:35:46.621Z,32.9
2018-07-05T10:36:49.091Z,33
2018-07-05T10:37:51.011Z,33
2018-07-05T10:38:53.468Z,32.9
2018-07-05T10:39:55.908Z,32.9
2018-07-05T10:40:57.806Z,33
2018-07-05T10:41:59.707Z,32.9
2018-07-05T10:43:02.151Z,32.9
2018-07-05T10:44:04.061Z,33.1
2018-07-05T10:45:06.530Z,32.9
2018-07-05T10:46:09.231Z,32.8
2018-07-05T10:47:11.873Z,32.8
2018-07-05T10:48:14.328Z,32.9
2018-07-05T10:49:16.777Z,33
2018-07-05T10:50:19.252Z,32.9
2018-07-05T10:51:21.697Z,33
2018-07-05T10:52:23.625Z,32.9
2018-07-05T10:53:25.804Z,33
2018-07-05T10:54:27.991Z,32.9
2018-07-05T10:55:30.446Z,32.9
2018-07-05T10:56:32.903Z,33
2018-07-05T10:57:35.121Z,32.9
2018-07-05T10:58:36.765Z,33.1
2018-07-05T10:59:39.272Z,32.8
2018-07-05T11:00:41.179Z,32.9
2018-07-05T11:01:43.364Z,33
2018-07-05T11:02:45.266Z,32.8
2018-07-05T11:03:47.494Z,32.9
2018-07-05T11:04:49.654Z,32.9
2018-07-05T11:05:52.173Z,33
2018-07-05T11:06:54.614Z,32.9
2018-07-05T11:07:57.054Z,32.9
2018-07-05T11:08:59.258Z,32.7
2018-07-05T11:10:01.717Z,33
2018-07-05T11:11:03.625Z,32.9
2018-07-05T11:12:06.086Z,32.9
2018-07-05T11:13:08.551Z,33
2018-07-05T11:14:10.733Z,32.9
2018-07-05T11:15:13.211Z,33.1
2018-07-05T11:16:15.436Z,32.9
2018-07-05T11:17:17.323Z,32.9
2018-07-05T11:18:19.509Z,32.9
2018-07-05T11:19:21.682Z,33
2018-07-05T11:20:24.143Z,33
2018-07-05T11:21:25.762Z,33
2018-07-05T11:22:27.943Z,33.1
2018-07-05T11:23:30.136Z,32.9
2018-07-05T11:24:32.588Z,32.9
2018-07-05T11:25:34.791Z,32.9
2018-07-05T11:26:36.972Z,32.9
2018-07-05T11:27:39.136Z,32.9
2018-07-05T11:28:41.584Z,32.9
2018-07-05T11:29:44.036Z,32.8
2018-07-05T11:30:46.509Z,32.8
2018-07-05T11:31:48.128Z,32.8
2018-07-05T11:32:50.616Z,33
2018-07-05T11:33:52.805Z,33
2018-07-05T11:34:55.327Z,32.8
2018-07-05T11:35:57.823Z,32.9
2018-07-05T11:36:59.730Z,32.9
2018-07-05T11:38:02.190Z,33
2018-07-05T11:39:04.100Z,32.9
2018-07-05T11:40:06.018Z,32.9
2018-07-05T11:41:08.215Z,33
2018-07-05T11:42:10.141Z,33
2018-07-05T11:43:12.357Z,33
2018-07-05T11:44:14.559Z,33
2018-07-05T11:45:16.745Z,32.8
2018-07-05T11:46:19.196Z,33
2018-07-05T11:47:21.645Z,33
2018-07-05T11:48:23.825Z,32.9
2018-07-05T11:49:26.011Z,33
2018-07-05T11:50:27.667Z,33.1
2018-07-05T11:51:29.861Z,32.9
2018-07-05T11:52:31.510Z,33
2018-07-05T11:53:33.973Z,33
2018-07-05T11:54:36.457Z,33
2018-07-05T11:55:38.922Z,33
2018-07-05T11:56:41.370Z,33
2018-07-05T11:57:43.837Z,33
2018-07-05T11:58:46.480Z,33.1
2018-07-05T11:59:48.654Z,32.9
2018-07-05T12:00:51.108Z,33
2018-07-05T12:01:53.370Z,32.9
2018-07-05T12:02:56.062Z,33
2018-07-05T12:03:58.192Z,32.9
2018-07-05T12:05:00.364Z,32.9
2018-07-05T12:06:02.530Z,33
2018-07-05T12:07:04.435Z,33
2018-07-05T12:08:06.313Z,32.9
2018-07-05T12:09:08.213Z,33
2018-07-05T12:10:10.686Z,33.1
2018-07-05T12:11:12.879Z,33
2018-07-05T12:12:15.073Z,33
2018-07-05T12:13:17.244Z,33
2018-07-05T12:14:19.423Z,32.9
2018-07-05T12:15:21.335Z,33.1
2018-07-05T12:16:23.489Z,33
2018-07-05T12:17:25.640Z,33
2018-07-05T12:18:27.811Z,32.9
2018-07-05T12:19:30.185Z,33
2018-07-05T12:20:32.358Z,32.9
2018-07-05T12:21:34.241Z,33
2018-07-05T12:22:36.169Z,33
2018-07-05T12:23:38.348Z,33
2018-07-05T12:24:40.532Z,32.8
2018-07-05T12:25:42.718Z,33
2018-07-05T12:26:44.929Z,32.9
2018-07-05T12:27:46.315Z,33
2018-07-05T12:28:48.232Z,33
2018-07-05T12:29:50.688Z,32.9
2018-07-05T12:30:52.889Z,33
2018-07-05T12:31:55.349Z,33.1
2018-07-05T12:32:57.509Z,32.9
2018-07-05T12:33:59.962Z,33
2018-07-05T12:35:02.418Z,33.1
2018-07-05T12:36:04.870Z,33
2018-07-05T12:37:07.057Z,33
2018-07-05T12:38:09.012Z,33
2018-07-05T12:39:11.652Z,33
2018-07-05T12:40:14.210Z,33.1
2018-07-05T12:41:16.709Z,33.1
2018-07-05T12:42:19.180Z,33
2018-07-05T12:43:21.117Z,33
2018-07-05T12:44:23.284Z,33.2
2018-07-05T12:45:25.732Z,33.1
2018-07-05T12:46:27.929Z,33.1
2018-07-05T12:47:30.106Z,33
2018-07-05T12:48:32.585Z,33
2018-07-05T12:49:34.778Z,33
2018-07-05T12:50:36.671Z,33
2018-07-05T12:51:38.858Z,33.2
2018-07-05T12:52:41.062Z,33.1
2018-07-05T12:53:43.535Z,33
2018-07-05T12:54:45.983Z,33.1
2018-07-05T12:55:48.433Z,33.1
2018-07-05T12:56:50.637Z,33
2018-07-05T12:57:52.824Z,33.1
2018-07-05T12:58:55.018Z,33.1
2018-07-05T12:59:57.197Z,33
2018-07-05T13:00:59.118Z,33.1
2018-07-05T13:02:01.295Z,33.2
2018-07-05T13:03:03.475Z,33.1
2018-07-05T13:04:06.142Z,33.1
2018-07-05T13:05:09.118Z,33.3
2018-07-05T13:06:11.589Z,33
2018-07-05T13:07:13.751Z,33.1
2018-07-05T13:08:15.362Z,33.2
2018-07-05T13:09:17.829Z,33
2018-07-05T13:10:20.298Z,33.1
2018-07-05T13:11:22.740Z,33
2018-07-05T13:12:25.251Z,33
2018-07-05T13:13:27.706Z,33.1
2018-07-05T13:14:29.892Z,33
2018-07-05T13:15:31.783Z,33
2018-07-05T13:16:34.262Z,32.9
2018-07-05T13:17:36.198Z,33
2018-07-05T13:18:38.662Z,33
2018-07-05T13:19:40.845Z,33.1
2018-07-05T13:20:43.289Z,33
2018-07-05T13:21:45.468Z,33.1
2018-07-05T13:22:47.923Z,33
2018-07-05T13:23:50.114Z,33
2018-07-05T13:24:52.289Z,33.1
2018-07-05T13:25:54.460Z,33
2018-07-05T13:26:56.905Z,33
2018-07-05T13:27:59.347Z,33
2018-07-05T13:29:01.840Z,33
2018-07-05T13:30:04.030Z,33
2018-07-05T13:31:06.476Z,33.1
2018-07-05T13:32:08.924Z,32.9
2018-07-05T13:33:11.261Z,33
2018-07-05T13:34:13.984Z,32.9
2018-07-05T13:35:16.168Z,32.9
2018-07-05T13:36:18.617Z,33
2018-07-05T13:37:20.238Z,33.1
2018-07-05T13:38:22.700Z,33
2018-07-05T13:39:25.345Z,32.9
2018-07-05T13:40:27.547Z,33
2018-07-05T13:41:29.718Z,33
2018-07-05T13:42:32.189Z,33
2018-07-05T13:43:34.382Z,33
2018-07-05T13:44:36.295Z,33
2018-07-05T13:45:38.548Z,33
2018-07-05T13:46:41.313Z,32.9
2018-07-05T13:47:43.787Z,33
2018-07-05T13:48:45.971Z,33
2018-07-05T13:49:47.911Z,33
2018-07-05T13:50:50.070Z,33
2018-07-05T13:51:52.531Z,33
2018-07-05T13:52:54.993Z,33
2018-07-05T13:53:57.567Z,33
2018-07-05T13:54:59.840Z,33
2018-07-05T13:56:02.279Z,33
2018-07-05T13:57:04.729Z,33
2018-07-05T13:58:06.370Z,33.1
2018-07-05T13:59:08.563Z,33.1
2018-07-05T14:00:11.002Z,32.9